Lake Linganore, Maryland
Current Conditions -  °F | °C
As of 5:50 PM on Monday 22 Dec 2014 (Local Time) from KFDK Reporting Station
Light Rain Light Rain  
Wind Chill: 34°   Ceiling: 400
Heat Index: 34°   Visibility: 2mi
Dew Point: 30°   Wind: 0mph
Humidity: 87%   Direction: NA
Pressure: 30.21"   Gusts: NA
Location:  39.4015°N, 77.2845°W
Report Text: KFDK 222250Z 00000KT 2SM -RA BKN004 OVC009 01/M01 A3021
Loading
Personal Weather Stations






























Interactive Weather Map New forecast layout! Learn more

10-Day Weather Forecast

Advertisements
Track Severe Weather on mobile